Select METAR Reports

 

KTOP - Topeka/Billard, Kansas USA
Distance from station: WSW 23mi, 37km
Updated: 01/24/2020 2:20pm CST
Overcast
Overcast
 Wind from WNW
Wind: WNW 12 mph , 19 km/h, Gust: 20 mph , 31 km/h
Temperature: 34°F , 1°C
Wind Chill: 25°F , -4°C
Dew Point: 27°F , -3°C
Humidity: 75%
Barometer: 30.04 inHg , 1017.3 hPa
Clouds: Overcast
Visibility: 8 miles , 13 km
Cloud details: Overcast 1600 ft
2020/01/24 20:20 KTOP 242020Z 30010G17KT 8SM OVC016 01/M03 A3004 RMK AO2 T00061028
KMCI - Kansas City Intl, Missouri USA
Distance from station: ENE 28mi, 45km
Updated: 01/24/2020 2:53pm CST
Mist, Overcast
Mist, Overcast
 Wind from WNW
Wind: WNW 13 mph , 20 km/h
Temperature: 34°F , 1°C
Wind Chill: 25°F , -4°C
Dew Point: 28°F , -2°C
Humidity: 81%
Barometer: 29.98 inHg , 1015.2 hPa
Summary: Mist
Clouds: Overcast
Visibility: 2 miles , 3 km
Cloud details: Overcast 700 ft
2020/01/24 20:53 KMCI 242053Z 30011KT 2SM BR OVC007 01/M02 A2998 RMK AO2 SFC VIS 3 SLP159 T00061017 53001
 
KFOE - Topeka/Forbes, Kansas USA
Distance from station: SW 29mi, 46km
Updated: 01/24/2020 2:53pm CST
Overcast
Overcast
 Wind from NW
Wind: NW 13 mph , 20 km/h
Temperature: 34°F , 1°C
Wind Chill: 25°F , -4°C
Dew Point: 27°F , -3°C
Humidity: 75%
Barometer: 30.03 inHg , 1016.9 hPa
Clouds: Overcast
Visibility: 8 miles , 13 km
Cloud details: Overcast 1400 ft
2020/01/24 20:53 KFOE 242053Z 32011KT 8SM OVC014 01/M03 A3003 RMK AO2 SLP177 T00061028 56004
KIXD - Olathe/Industrial, Kansas USA
Distance from station: SE 32mi, 52km
Updated: 01/24/2020 2:53pm CST
Mist, Overcast
Mist, Overcast
 Wind from WNW
Wind: WNW 14 mph , 22 km/h
Temperature: 30°F , -1°C
Wind Chill: 19°F , -7°C
Dew Point: 28°F , -2°C
Humidity: 93%
Barometer: 30.01 inHg , 1016.3 hPa
Summary: Mist
Clouds: Overcast
Visibility: 4 miles , 6 km
Cloud details: Overcast 700 ft
2020/01/24 20:53 KIXD 242053Z 29012KT 4SM BR OVC007 M01/M02 A3001 RMK AO2 SLP171 T10061022 53001
 
KMKC - Kansas City/Dntn, Missouri USA
Distance from station: E 35mi, 56km
Updated: 01/24/2020 2:54pm CST
Mist, Overcast
Mist, Overcast
 Wind from WNW
Wind: WNW 14 mph , 22 km/h, Gust: 25 mph , 41 km/h
Temperature: 32°F , 0°C
Wind Chill: 22°F , -6°C
Dew Point: 28°F , -2°C
Humidity: 87%
Barometer: 29.99 inHg , 1015.6 hPa
Summary: Mist
Clouds: Overcast
Visibility: 4 miles , 6 km
Cloud details: Overcast 800 ft
2020/01/24 20:54 KMKC 242054Z 30012G22KT 4SM BR OVC008 00/M02 A2999 RMK AO2 SLP162 60000 T00001017 53001
KMHK - Manhattan, Kansas USA
Distance from station: W 75mi, 120km
Updated: 01/24/2020 2:52pm CST
Overcast
Overcast
 Wind from NNW
Wind: NNW 8 mph , 13 km/h
Temperature: 34°F , 1°C
Wind Chill: 27°F , -3°C
Dew Point: 27°F , -3°C
Humidity: 75%
Barometer: 30.06 inHg , 1017.9 hPa
Clouds: Overcast
Visibility: 10 miles , 16 km
Cloud details: Overcast 1500 ft
2020/01/24 20:52 KMHK 242052Z 33007KT 10SM OVC015 01/M03 A3006 RMK AO2 SLP190 T00111028 56008
 
KFRI - Ft Riley/Marshal, Kansas, USA
Distance from station: W 83mi, 133km
Updated: 01/24/2020 2:56pm CST
Overcast
Overcast
 Wind from NNW
Wind: NNW 6 mph , 9 km/h
Temperature: 34°F , 1°C
Wind Chill: 29°F , -2°C
Dew Point: 27°F , -3°C
Humidity: 75%
Barometer: 30.06 inHg , 1017.9 hPa
Clouds: Overcast
Visibility: 10 miles , 16 km
Cloud details: Mostly cloudy 1400 ft
Overcast 3200 ft
2020/01/24 20:56 KFRI 242056Z AUTO 33005KT 10SM BKN014 OVC032 01/M03 A3006 RMK AO2 SLP188 T00061031 57011
KOMA - Omaha, Nebraska USA
Distance from station: N 148mi, 239km
Updated: 01/24/2020 2:52pm CST
Mist, Overcast
Mist, Overcast
 Wind from NNW
Wind: NNW 15 mph , 24 km/h
Temperature: 30°F , -1°C
Wind Chill: 19°F , -7°C
Dew Point: 27°F , -3°C
Humidity: 86%
Barometer: 30.03 inHg , 1016.9 hPa
Summary: Mist
Clouds: Overcast
Visibility: 4 miles , 6 km
Cloud details: Overcast 900 ft
2020/01/24 20:52 KOMA 242052Z 33013KT 4SM BR OVC009 M01/M03 A3003 RMK AO2 SLP179 T10111028 57007
 
KICT - Wichita, Kansas USA
Distance from station: SW 176mi, 283km
Updated: 01/24/2020 2:53pm CST
Overcast
Overcast
 Wind from NW
Wind: NW 10 mph , 17 km/h
Temperature: 37°F , 3°C
Wind Chill: 30°F , -1°C
Dew Point: 27°F , -3°C
Humidity: 65%
Barometer: 30.07 inHg , 1018.3 hPa
Clouds: Overcast
Visibility: 10 miles , 16 km
Cloud details: Overcast 2200 ft
2020/01/24 20:53 KICT 242053Z 32009KT 10SM OVC022 03/M03 A3007 RMK AO2 SLP191 T00281028 56014
KDSM - Des Moines, Iowa USA
Distance from station: NNE 186mi, 300km
Updated: 01/24/2020 2:54pm CST
Light snow, Mist, Overcast
Light snow, Mist, Overcast
 Wind from NNW
Wind: NNW 13 mph , 20 km/h, Gust: 22 mph , 35 km/h
Temperature: 32°F , 0°C
Wind Chill: 22°F , -6°C
Dew Point: 28°F , -2°C
Humidity: 87%
Barometer: 29.93 inHg , 1013.5 hPa
Summary: Light snow, Mist
Clouds: Overcast
Visibility: 1 mile , 2 km
Cloud details: Mostly cloudy 1000 ft
Overcast 1600 ft
2020/01/24 20:54 KDSM 242054Z 34011G19KT 1SM R31/6000VP6000FT -SN BR BKN010 OVC016 00/M02 A2993 RMK AO2 SFC VIS 1 3/4 SLP143 P0003 60004 T00001022 53000
 
KGLD - Goodland, Kansas USA
Distance from station: W 380mi, 611km
Updated: 01/24/2020 2:53pm CST
Clear
Clear
 Wind from NW
Wind: NW 7 mph , 11 km/h
Temperature: 52°F , 11°C
Dew Point: 23°F , -5°C
Humidity: 32%
Barometer: 29.96 inHg , 1014.6 hPa
Clouds: Clear
Visibility: 10 miles , 16 km
2020/01/24 20:53 KGLD 242053Z AUTO 31006KT 10SM CLR 11/M05 A2996 RMK AO2 SLP154 6//// T01111050 56026
KOKC - Oklahoma City, Oklahoma USA
Distance from station: SSW 288mi, 463km
Updated: 01/24/2020 2:52pm CST
Clear
Clear
 Wind from N
Wind: N 15 mph , 24 km/h, Gust: 20 mph , 31 km/h
Temperature: 48°F , 9°C
Wind Chill: 42°F , 6°C
Dew Point: 30°F , -1°C
Humidity: 50%
Barometer: 30.07 inHg , 1018.3 hPa
Clouds: Clear
Visibility: 10 miles , 16 km
2020/01/24 20:52 KOKC 242052Z 35013G17KT 10SM CLR 09/M01 A3007 RMK AO2 SLP186 T00941011 56025 $
 
KSTL - St Loius, Missouri USA
Distance from station: E 288mi, 463km
Updated: 01/24/2020 2:51pm CST
Overcast
Overcast
 Wind from WNW
Wind: WNW 10 mph , 17 km/h
Temperature: 36°F , 2°C
Wind Chill: 29°F , -2°C
Dew Point: 30°F , -1°C
Humidity: 81%
Barometer: 29.85 inHg , 1010.8 hPa
Clouds: Overcast
Visibility: 10 miles , 16 km
Cloud details: Overcast 1100 ft
2020/01/24 20:51 KSTL 242051Z 29009KT 10SM OVC011 02/M01 A2985 RMK AO2 SLP116 T00171006 53001
KDFW - Dallas/Ft Worth, Texas USA
Distance from station: SSW 452mi, 728km
Updated: 01/24/2020 2:53pm CST
Clear
Clear
 Wind from NW
Wind: NW 9 mph , 15 km/h
Temperature: 57°F , 14°C
Dew Point: 30°F , -1°C
Humidity: 36%
Barometer: 30.10 inHg , 1019.3 hPa
Clouds: Clear
Visibility: 10 miles , 16 km
2020/01/24 20:53 KDFW 242053Z 31008KT 10SM CLR 14/M01 A3010 RMK AO2 SLP190 T01441006 56026
 
KMIA - Miami, Florida USA
Distance from station: SE 1273mi, 2049km
Updated: 01/24/2020 2:53pm CST
Mostly cloudy
Mostly cloudy
 Wind from SE
Wind: SE 10 mph , 17 km/h
Temperature: 77°F , 25°C
Dew Point: 61°F , 16°C
Humidity: 57%
Barometer: 29.99 inHg , 1015.6 hPa
Clouds: Mostly cloudy
Visibility: 10 miles , 16 km
Cloud details: Few Clouds 3300 ft
Partly cloudy 9000 ft
Mostly cloudy 25000 ft
2020/01/24 20:53 KMIA 242053Z 13009KT 10SM FEW033 SCT090 BKN250 25/16 A2999 RMK AO2 SLP155 T02500161 56013
KSAN - San Diego, California USA
Distance from station: WSW 1301mi, 2094km
Updated: 01/24/2020 2:51pm CST
Partly cloudy
Partly cloudy
 Wind from varies
Wind: varies 7 mph , 11 km/h
Temperature: 64°F , 18°C
Dew Point: 55°F , 13°C
Humidity: 73%
Barometer: 30.00 inHg , 1015.9 hPa
Clouds: Partly cloudy
Visibility: 10 miles , 16 km
Cloud details: Few Clouds 200 ft
Partly cloudy 20000 ft
2020/01/24 20:51 KSAN 242051Z VRB06KT 10SM FEW002 SCT200 18/13 A3000 RMK AO2 SLP159 T01780133 58017 $
 
KPQI - Presque Isle, Maine USA
Distance from station: NNE 1462mi, 2353km
Updated: 01/24/2020 2:56pm CST
Clear
Clear
 Wind from E
Wind: E 5 mph , 7 km/h
Temperature: 25°F , -4°C
Wind Chill: 19°F , -7°C
Dew Point: 16°F , -9°C
Humidity: 69%
Barometer: 30.49 inHg , 1032.5 hPa
Clouds: Clear
Visibility: 10 miles , 16 km
2020/01/24 20:56 KPQI 242056Z AUTO 10004KT 10SM CLR M04/M09 A3049 RMK AO2 SLP359 T10391089 56003
KSEA - Seattle, Washinton USA
Distance from station: WNW 1469mi, 2364km
Updated: 01/24/2020 2:53pm CST
Overcast
Overcast
 Wind from SSW
Wind: SSW 12 mph , 19 km/h, Gust: 22 mph , 35 km/h
Temperature: 52°F , 11°C
Dew Point: 45°F , 7°C
Humidity: 77%
Barometer: 29.96 inHg , 1014.6 hPa
Clouds: Overcast
Visibility: 10 miles , 16 km
Cloud details: Few Clouds 1500 ft
Partly cloudy 2500 ft
Overcast 3400 ft
2020/01/24 20:53 KSEA 242053Z 21010G19KT 10SM FEW015 SCT025 OVC034 11/07 A2996 RMK AO2 RAE32 SLP154 P0001 60001 T01060072 51019
 
PANC - Anchorage Intl, Alaska USA
Distance from station: NW 2742mi, 4413km
Updated: 01/24/2020 2:53pm CST
Mostly cloudy
Mostly cloudy
 Wind from varies
Wind: varies 7 mph , 11 km/h
Temperature: 12°F , -11°C
Wind Chill: 1°F , -17°C
Dew Point: 1°F , -17°C
Humidity: 62%
Barometer: 29.41 inHg , 995.9 hPa
Clouds: Mostly cloudy
Visibility: 10 miles , 16 km
Cloud details: Few Clouds 3000 ft
Partly cloudy 4300 ft
Mostly cloudy 9000 ft
2020/01/24 20:53 PANC 242053Z VRB06KT 10SM FEW030 SCT043 BKN090 M11/M17 A2941 RMK AO2 SNE12 SLP965 P0000 60000 T11111167 53003
PHNL - Honolulu, HI USA
Distance from station: WSW 3856mi, 6206km
Updated: 01/24/2020 2:53pm CST
Few Clouds
Few Clouds
 Wind from SSW
Wind: SSW 7 mph , 11 km/h
Temperature: 79°F , 26°C
Dew Point: 63°F , 17°C
Humidity: 58%
Barometer: 30.11 inHg , 1019.6 hPa
Clouds: Few Clouds
Visibility: 10 miles , 16 km
Cloud details: Few Clouds 2500 ft
2020/01/24 20:53 PHNL 242053Z 20006KT 10SM FEW025 26/17 A3011 RMK AO2 SLP196 T02610172 51012